Time;durP1;ratioP1;P1;durP2;ratioP2;P2;SDS_P1;SDS_P2;PMS_P1;PMS_P2;Temp;Humidity;BMP_temperature;BMP_pressure;BME280_temperature;BME280_humidity;BME280_pressure;Samples;Min_cycle;Max_cycle;Signal;HPM_P1;HPM_P2
2021/04/28 00:00:00;;;;;;;9.05;4.80;;;6.70;52.90;;;;;;4992242;28;20101;-51
2021/04/28 00:02:26;;;;;;;8.75;5.38;;;6.80;53.20;;;;;;4991921;28;20121;-53
2021/04/28 00:04:54;;;;;;;10.10;5.25;;;6.70;53.40;;;;;;4992516;28;20509;-52
2021/04/28 00:07:20;;;;;;;7.78;5.30;;;6.60;53.70;;;;;;4991760;28;20041;-51
2021/04/28 00:09:46;;;;;;;11.70;5.45;;;6.60;54.00;;;;;;4992067;28;20101;-53
2021/04/28 00:12:15;;;;;;;11.80;5.25;;;6.70;54.00;;;;;;4978296;28;20062;-53
2021/04/28 00:14:48;;;;;;;7.95;5.00;;;6.60;54.00;;;;;;4991146;28;20466;-53
2021/04/28 00:17:14;;;;;;;9.52;5.07;;;6.50;54.70;;;;;;4991777;28;20536;-52
2021/04/28 00:19:44;;;;;;;9.10;5.30;;;6.50;55.00;;;;;;4982026;28;20096;-54
2021/04/28 00:22:10;;;;;;;12.35;5.35;;;6.40;55.00;;;;;;4989174;28;20077;-50
2021/04/28 00:24:37;;;;;;;10.55;5.20;;;6.40;55.70;;;;;;5012545;28;20043;-51
2021/04/28 00:27:02;;;;;;;8.95;4.70;;;6.40;55.00;;;;;;4987129;28;20100;-49
2021/04/28 00:29:28;;;;;;;13.18;5.43;;;6.50;55.00;;;;;;4991317;28;20035;-51
2021/04/28 00:31:54;;;;;;;10.00;5.45;;;6.40;55.20;;;;;;4991756;28;20038;-51
2021/04/28 00:34:19;;;;;;;10.27;4.95;;;6.30;55.40;;;;;;4991609;28;20042;-49
2021/04/28 00:36:45;;;;;;;11.98;5.00;;;6.40;55.30;;;;;;4991382;28;20042;-50
2021/04/28 00:39:11;;;;;;;8.40;4.70;;;6.50;55.10;;;;;;4991580;28;20042;-51
2021/04/28 00:41:37;;;;;;;11.32;5.47;;;6.40;55.40;;;;;;4991398;28;20108;-49
2021/04/28 00:44:03;;;;;;;12.13;5.03;;;6.30;55.50;;;;;;4989822;28;20046;-52
2021/04/28 00:46:29;;;;;;;12.80;4.88;;;6.30;55.60;;;;;;4988140;28;20604;-49
2021/04/28 00:48:54;;;;;;;7.97;5.13;;;6.30;55.50;;;;;;4979854;28;20073;-51
2021/04/28 00:51:20;;;;;;;9.38;4.93;;;6.30;55.60;;;;;;4991471;28;20093;-51
2021/04/28 00:53:47;;;;;;;8.48;5.38;;;6.20;56.10;;;;;;4991400;28;20045;-51
2021/04/28 00:56:16;;;;;;;9.82;5.20;;;6.20;56.30;;;;;;4991945;28;20042;-49
2021/04/28 00:58:43;;;;;;;10.15;5.47;;;6.20;56.10;;;;;;4974614;28;20513;-49
2021/04/28 01:01:11;;;;;;;11.48;5.38;;;6.10;56.20;;;;;;4991074;28;20042;-49
2021/04/28 01:03:38;;;;;;;8.05;5.38;;;6.10;56.40;;;;;;4987741;28;20479;-52
2021/04/28 01:06:07;;;;;;;9.40;5.10;;;6.10;56.40;;;;;;4971552;28;20471;-48
2021/04/28 01:08:34;;;;;;;10.30;5.32;;;6.00;56.80;;;;;;4985205;28;20133;-50
2021/04/28 01:11:01;;;;;;;7.47;4.97;;;5.90;56.80;;;;;;4980136;28;20472;-50
2021/04/28 01:13:31;;;;;;;8.52;5.05;;;6.00;56.70;;;;;;4976609;28;20120;-48
2021/04/28 01:15:57;;;;;;;10.02;5.13;;;6.00;56.70;;;;;;4983860;28;20138;-52
2021/04/28 01:18:23;;;;;;;11.75;5.22;;;6.00;56.50;;;;;;4984070;28;20138;-49
2021/04/28 01:20:50;;;;;;;10.80;5.60;;;5.90;56.50;;;;;;4989484;28;20045;-49
2021/04/28 01:23:17;;;;;;;10.38;5.18;;;5.80;56.60;;;;;;4990567;28;20409;-51
2021/04/28 01:25:43;;;;;;;8.43;5.03;;;5.90;56.70;;;;;;4989686;28;20496;-50
2021/04/28 01:28:21;;;;;;;9.23;5.20;;;5.90;56.60;;;;;;4990347;28;20130;-53
2021/04/28 01:31:08;;;;;;;10.25;5.25;;;5.90;56.70;;;;;;4990684;28;20555;-49
2021/04/28 01:33:39;;;;;;;10.00;5.10;;;5.90;56.50;;;;;;4989390;28;20138;-48
2021/04/28 01:36:08;;;;;;;8.63;5.10;;;5.90;56.60;;;;;;4990398;28;20584;-51
2021/04/28 01:38:41;;;;;;;9.30;4.60;;;5.90;56.30;;;;;;4990177;28;20038;-50
2021/04/28 01:41:07;;;;;;;8.27;4.57;;;5.80;56.60;;;;;;4990300;28;20034;-49
2021/04/28 01:43:33;;;;;;;8.15;4.95;;;5.90;56.30;;;;;;4990303;28;20034;-48
2021/04/28 01:45:59;;;;;;;9.43;4.88;;;5.90;56.90;;;;;;4990613;28;20052;-51
2021/04/28 01:48:25;;;;;;;8.35;5.13;;;5.90;56.30;;;;;;4982282;28;20042;-49
2021/04/28 01:50:52;;;;;;;9.25;4.63;;;5.90;56.40;;;;;;4973831;28;20088;-48
2021/04/28 01:53:22;;;;;;;9.52;5.00;;;5.80;56.50;;;;;;4976217;28;20117;-50
2021/04/28 01:55:51;;;;;;;9.30;5.05;;;5.90;56.50;;;;;;4983103;28;20057;-51
2021/04/28 01:58:18;;;;;;;12.63;5.80;;;5.90;55.90;;;;;;4990243;28;20046;-51
2021/04/28 02:00:45;;;;;;;7.93;4.65;;;5.80;56.40;;;;;;4990545;28;20042;-55
2021/04/28 02:03:11;;;;;;;11.32;5.40;;;5.70;57.10;;;;;;4989665;28;20038;-50
2021/04/28 02:05:36;;;;;;;10.18;4.93;;;5.70;56.90;;;;;;4990117;28;20079;-48
2021/04/28 02:08:04;;;;;;;9.65;5.28;;;5.60;57.30;;;;;;4990381;28;20406;-50
2021/04/28 02:10:34;;;;;;;6.70;4.88;;;5.70;56.90;;;;;;4990723;28;20058;-51
2021/04/28 02:13:01;;;;;;;12.40;5.63;;;5.70;57.10;;;;;;4990069;28;20046;-50
2021/04/28 02:15:29;;;;;;;9.63;4.95;;;5.60;57.30;;;;;;4981097;28;20082;-51
2021/04/28 02:18:00;;;;;;;11.00;5.22;;;5.60;57.10;;;;;;4987177;28;20038;-51
2021/04/28 02:20:27;;;;;;;9.02;4.78;;;5.50;57.50;;;;;;4988512;28;20090;-51
2021/04/28 02:22:54;;;;;;;10.18;5.43;;;5.60;57.00;;;;;;4990367;28;20064;-50
2021/04/28 02:25:20;;;;;;;8.40;4.95;;;5.60;57.20;;;;;;4990425;28;20086;-50
2021/04/28 02:27:52;;;;;;;10.40;5.32;;;5.60;57.20;;;;;;4990886;28;20061;-50
2021/04/28 02:30:20;;;;;;;9.80;5.47;;;5.50;57.10;;;;;;4973423;28;20402;-51
2021/04/28 02:32:46;;;;;;;9.35;5.18;;;5.50;57.50;;;;;;4989626;28;20106;-50
2021/04/28 02:35:13;;;;;;;9.57;4.97;;;5.50;57.30;;;;;;4974384;28;20084;-50
2021/04/28 02:37:41;;;;;;;10.05;4.90;;;5.50;57.10;;;;;;4989643;28;20503;-52
2021/04/28 02:40:09;;;;;;;8.55;5.13;;;5.40;57.60;;;;;;4989417;28;20041;-52
2021/04/28 02:42:36;;;;;;;8.75;5.50;;;5.30;57.50;;;;;;4983325;28;20495;-53
2021/04/28 02:45:04;;;;;;;12.82;5.43;;;5.40;57.80;;;;;;4997916;28;20042;-52
2021/04/28 02:47:32;;;;;;;10.40;5.50;;;5.30;57.90;;;;;;5016679;28;20041;-50
2021/04/28 02:49:58;;;;;;;9.13;5.32;;;5.30;57.70;;;;;;5015845;28;20077;-50
2021/04/28 02:52:28;;;;;;;9.90;5.72;;;5.30;58.10;;;;;;4988928;28;20038;-50
2021/04/28 02:54:55;;;;;;;10.10;4.65;;;5.40;57.90;;;;;;4988276;28;20042;-52
2021/04/28 02:57:21;;;;;;;9.43;5.60;;;5.30;58.10;;;;;;4985715;28;20043;-53
2021/04/28 02:59:49;;;;;;;9.27;4.95;;;5.20;58.00;;;;;;4986512;28;20414;-50
2021/04/28 03:02:15;;;;;;;9.98;5.45;;;5.30;58.10;;;;;;4978017;28;20087;-50
2021/04/28 03:04:42;;;;;;;15.13;5.32;;;5.20;58.00;;;;;;5050376;28;20470;-49
2021/04/28 03:07:12;;;;;;;12.70;5.05;;;5.20;58.30;;;;;;5069620;28;20036;-49
2021/04/28 03:09:39;;;;;;;9.23;5.03;;;5.20;58.30;;;;;;5016022;28;20418;-50
2021/04/28 03:12:06;;;;;;;9.48;5.30;;;5.30;58.30;;;;;;4985455;28;20073;-51
2021/04/28 03:14:32;;;;;;;13.23;4.95;;;5.20;58.20;;;;;;4984944;28;20553;-50
2021/04/28 03:16:58;;;;;;;11.38;4.80;;;5.10;58.50;;;;;;5007062;28;20040;-49
2021/04/28 03:19:24;;;;;;;10.77;5.07;;;5.10;58.60;;;;;;5033994;28;20089;-51
2021/04/28 03:21:50;;;;;;;10.20;5.13;;;5.20;58.80;;;;;;4991596;28;20054;-51
2021/04/28 03:24:17;;;;;;;8.77;4.90;;;5.20;58.30;;;;;;4979797;28;20406;-48
2021/04/28 03:26:44;;;;;;;7.70;4.70;;;5.20;58.40;;;;;;4980583;28;20502;-47
2021/04/28 03:29:10;;;;;;;9.23;4.57;;;5.10;58.80;;;;;;4987833;28;20043;-48
2021/04/28 03:31:35;;;;;;;9.32;5.10;;;5.10;59.10;;;;;;4987962;28;20095;-48
2021/04/28 03:34:02;;;;;;;18.60;4.93;;;5.10;59.00;;;;;;4977088;28;20054;-47
2021/04/28 03:36:27;;;;;;;9.75;5.30;;;5.10;59.20;;;;;;4988265;28;20110;-51
2021/04/28 03:38:53;;;;;;;10.32;5.25;;;5.00;58.80;;;;;;4996939;28;20093;-49
2021/04/28 03:41:19;;;;;;;7.65;4.97;;;4.90;59.60;;;;;;4993593;28;20125;-52
2021/04/28 03:43:45;;;;;;;8.98;4.88;;;5.00;59.60;;;;;;4986260;28;20042;-49
2021/04/28 03:46:12;;;;;;;10.63;5.32;;;4.90;59.40;;;;;;4993997;28;20046;-48
2021/04/28 03:48:38;;;;;;;8.52;4.65;;;5.00;59.60;;;;;;4994252;28;20556;-48
2021/04/28 03:51:04;;;;;;;9.13;5.28;;;4.90;59.60;;;;;;4995134;28;20035;-49
2021/04/28 03:53:29;;;;;;;9.27;4.38;;;4.90;60.50;;;;;;4994488;28;20046;-49
2021/04/28 03:55:55;;;;;;;11.93;5.13;;;4.80;60.00;;;;;;4996639;28;20509;-49
2021/04/28 03:58:21;;;;;;;8.77;4.85;;;4.80;60.10;;;;;;4995985;28;20456;-52
2021/04/28 04:00:47;;;;;;;7.05;3.90;;;4.80;59.80;;;;;;4993660;28;20125;-51
2021/04/28 04:03:13;;;;;;;9.57;4.97;;;4.90;59.90;;;;;;4983762;28;20066;-51
2021/04/28 04:05:38;;;;;;;8.60;4.70;;;4.90;59.20;;;;;;4994604;28;20051;-52
2021/04/28 04:08:04;;;;;;;9.20;4.90;;;4.90;59.60;;;;;;4994273;28;20050;-49
2021/04/28 04:10:30;;;;;;;8.38;5.05;;;4.80;59.90;;;;;;5018125;28;20068;-49
2021/04/28 04:12:56;;;;;;;8.02;4.88;;;4.80;59.60;;;;;;4987441;28;20109;-49
2021/04/28 04:15:22;;;;;;;10.35;4.90;;;4.70;60.00;;;;;;4996160;28;20457;-50
2021/04/28 04:17:48;;;;;;;6.38;4.03;;;4.70;60.30;;;;;;4995004;28;20135;-49
2021/04/28 04:20:14;;;;;;;9.10;4.57;;;4.80;59.90;;;;;;4985420;28;20054;-49
2021/04/28 04:22:39;;;;;;;11.48;5.07;;;4.80;59.60;;;;;;4988046;28;20072;-49
2021/04/28 04:25:06;;;;;;;10.60;5.07;;;4.80;60.10;;;;;;4995522;28;20035;-51
2021/04/28 04:27:33;;;;;;;8.68;4.93;;;4.80;60.10;;;;;;4992414;28;20046;-51
2021/04/28 04:30:01;;;;;;;9.77;4.43;;;4.70;60.10;;;;;;4994436;28;20099;-50
2021/04/28 04:32:27;;;;;;;9.45;4.68;;;4.70;61.10;;;;;;4993010;28;20418;-50
2021/04/28 04:34:52;;;;;;;7.78;4.43;;;4.70;60.50;;;;;;4991629;28;20054;-52
2021/04/28 04:37:19;;;;;;;9.98;5.13;;;4.60;60.60;;;;;;4992374;28;20433;-51
2021/04/28 04:39:45;;;;;;;10.60;5.40;;;4.60;61.40;;;;;;4992130;28;20043;-50
2021/04/28 04:42:11;;;;;;;10.40;4.68;;;4.50;61.30;;;;;;4995856;28;20074;-53
2021/04/28 04:44:37;;;;;;;11.93;4.43;;;4.50;61.60;;;;;;4981595;28;20047;-53
2021/04/28 04:47:03;;;;;;;11.32;4.60;;;4.60;61.10;;;;;;4992639;28;20061;-51
2021/04/28 04:49:29;;;;;;;6.65;3.55;;;4.60;60.50;;;;;;4998194;28;20050;-51
2021/04/28 04:51:55;;;;;;;6.25;3.63;;;4.60;60.90;;;;;;4986749;28;20054;-52
2021/04/28 04:54:20;;;;;;;7.97;4.57;;;4.80;59.70;;;;;;4992544;28;20043;-50
2021/04/28 04:56:46;;;;;;;10.27;4.30;;;4.70;60.10;;;;;;5061840;28;20094;-52
2021/04/28 04:59:13;;;;;;;10.82;4.85;;;4.60;60.60;;;;;;5020010;28;20093;-53
2021/04/28 05:01:40;;;;;;;8.63;4.57;;;4.50;61.00;;;;;;4986067;28;20040;-49
2021/04/28 05:04:06;;;;;;;8.80;4.47;;;4.60;60.80;;;;;;5008142;28;20479;-52
2021/04/28 05:06:33;;;;;;;7.00;4.25;;;4.70;60.40;;;;;;4982248;28;20061;-54
2021/04/28 05:08:58;;;;;;;11.68;4.63;;;4.70;60.80;;;;;;4988994;28;20034;-53
2021/04/28 05:11:24;;;;;;;9.45;4.47;;;4.80;61.10;;;;;;4977941;28;20042;-52
2021/04/28 05:13:49;;;;;;;9.07;4.25;;;4.90;60.10;;;;;;4983188;28;20470;-52
2021/04/28 05:16:16;;;;;;;8.98;3.90;;;4.90;60.10;;;;;;4989788;28;20044;-52
2021/04/28 05:18:41;;;;;;;8.40;3.92;;;5.10;59.50;;;;;;5019518;28;20499;-50
2021/04/28 05:21:07;;;;;;;9.75;4.45;;;5.20;59.10;;;;;;4983559;28;20439;-50
2021/04/28 05:23:32;;;;;;;9.95;4.32;;;5.30;58.60;;;;;;5020342;28;20045;-51
2021/04/28 05:25:58;;;;;;;10.30;4.57;;;5.40;58.20;;;;;;4990463;28;20046;-53
2021/04/28 05:28:24;;;;;;;9.80;4.40;;;5.40;58.10;;;;;;4989570;28;20030;-51
2021/04/28 05:30:49;;;;;;;7.78;4.07;;;5.30;58.30;;;;;;4989554;28;20042;-52
2021/04/28 05:33:15;;;;;;;9.18;4.82;;;5.30;58.40;;;;;;4989889;28;20486;-51
2021/04/28 05:35:41;;;;;;;13.55;4.78;;;5.30;58.60;;;;;;5020807;28;20567;-51
2021/04/28 05:38:07;;;;;;;10.40;4.13;;;5.30;58.60;;;;;;4982495;28;20081;-52
2021/04/28 05:40:32;;;;;;;8.52;4.20;;;5.40;58.80;;;;;;4991742;28;20128;-51
2021/04/28 05:42:58;;;;;;;11.98;4.53;;;5.60;58.50;;;;;;5076545;28;20048;-50
2021/04/28 05:45:24;;;;;;;8.68;4.00;;;5.90;57.60;;;;;;5009004;28;20164;-51
2021/04/28 05:47:50;;;;;;;7.32;4.30;;;6.30;56.30;;;;;;4986401;28;20057;-51
2021/04/28 05:50:17;;;;;;;10.32;4.70;;;6.70;55.80;;;;;;4973392;28;20043;-53
2021/04/28 05:52:45;;;;;;;7.80;3.83;;;7.00;54.30;;;;;;4976758;28;20046;-50
2021/04/28 05:55:11;;;;;;;7.45;4.20;;;7.30;52.70;;;;;;4976526;28;20050;-53
2021/04/28 05:57:38;;;;;;;9.90;4.00;;;7.50;52.50;;;;;;4989615;28;20076;-50
2021/04/28 06:00:12;;;;;;;9.63;4.00;;;7.80;52.10;;;;;;4992110;28;20047;-52
2021/04/28 06:02:38;;;;;;;9.40;4.40;;;8.20;51.50;;;;;;5007588;28;20442;-53
2021/04/28 06:05:05;;;;;;;9.07;4.28;;;8.50;50.30;;;;;;5007496;28;20036;-53
2021/04/28 06:07:34;;;;;;;8.30;4.05;;;8.60;50.40;;;;;;5033682;28;20035;-53
2021/04/28 06:10:03;;;;;;;12.93;4.72;;;8.30;49.50;;;;;;5021586;28;20049;-50
2021/04/28 06:12:30;;;;;;;7.75;4.07;;;8.20;50.60;;;;;;4988244;28;20498;-49
2021/04/28 06:14:56;;;;;;;7.75;4.05;;;8.30;50.60;;;;;;4983519;28;20042;-51
2021/04/28 06:17:22;;;;;;;8.23;4.80;;;8.60;50.90;;;;;;4988582;28;20097;-50
2021/04/28 06:19:48;;;;;;;9.60;4.80;;;9.00;50.00;;;;;;4988268;28;20050;-53
2021/04/28 06:22:14;;;;;;;7.63;4.30;;;8.80;49.50;;;;;;4988451;28;20066;-54
2021/04/28 06:24:39;;;;;;;10.93;4.43;;;8.60;50.00;;;;;;4988957;28;20054;-53
2021/04/28 06:27:05;;;;;;;8.18;4.43;;;8.40;51.10;;;;;;4976730;28;20042;-50
2021/04/28 06:29:31;;;;;;;9.45;4.22;;;8.20;51.80;;;;;;4988968;28;20031;-51
2021/04/28 06:31:57;;;;;;;7.97;4.50;;;8.20;51.20;;;;;;4988086;28;20400;-51
2021/04/28 06:34:23;;;;;;;18.00;5.28;;;8.20;50.70;;;;;;4988853;28;20066;-52
2021/04/28 06:36:49;;;;;;;7.45;4.53;;;8.20;51.60;;;;;;4988505;28;20070;-54
2021/04/28 06:39:15;;;;;;;8.02;4.68;;;8.30;50.60;;;;;;4983423;28;20035;-54
2021/04/28 06:41:42;;;;;;;8.15;3.90;;;8.30;51.20;;;;;;4979891;28;20038;-51
2021/04/28 06:44:08;;;;;;;10.23;4.55;;;8.40;50.60;;;;;;5045399;28;20082;-53
2021/04/28 06:46:34;;;;;;;9.15;4.60;;;8.50;50.90;;;;;;4979885;28;20051;-54
2021/04/28 06:48:59;;;;;;;7.60;4.45;;;8.50;50.00;;;;;;4988026;28;20060;-54
2021/04/28 06:51:25;;;;;;;12.13;4.10;;;8.50;50.20;;;;;;5028965;28;20070;-54
2021/04/28 06:53:51;;;;;;;8.25;4.85;;;8.60;50.40;;;;;;4989179;28;20513;-52
2021/04/28 06:56:16;;;;;;;10.73;4.35;;;8.60;50.40;;;;;;4988462;28;20091;-52
2021/04/28 06:58:44;;;;;;;14.45;4.35;;;8.70;50.80;;;;;;4988398;28;20049;-53
2021/04/28 07:01:09;;;;;;;6.90;4.55;;;8.70;50.80;;;;;;4988591;28;20041;-53
2021/04/28 07:03:35;;;;;;;10.05;3.90;;;8.80;50.90;;;;;;4988019;28;20046;-52
2021/04/28 07:06:01;;;;;;;7.88;4.25;;;8.90;50.40;;;;;;4977143;28;20092;-50
2021/04/28 07:08:26;;;;;;;8.20;4.65;;;9.00;50.00;;;;;;4979431;28;20471;-54
2021/04/28 07:10:52;;;;;;;9.73;4.68;;;9.10;50.40;;;;;;4975931;28;20031;-52
2021/04/28 07:13:17;;;;;;;8.38;4.15;;;9.10;50.50;;;;;;4980563;28;20051;-54
2021/04/28 07:15:43;;;;;;;6.15;4.18;;;9.30;50.60;;;;;;4971416;28;20050;-53
2021/04/28 07:18:09;;;;;;;7.03;4.13;;;9.40;50.90;;;;;;4982523;28;20532;-54
2021/04/28 07:20:35;;;;;;;8.68;4.82;;;9.50;50.10;;;;;;4981897;28;20050;-52
2021/04/28 07:23:01;;;;;;;10.90;4.85;;;9.60;50.00;;;;;;4975297;28;20069;-53
2021/04/28 07:25:26;;;;;;;10.77;4.70;;;9.70;48.20;;;;;;4988228;28;20406;-52
2021/04/28 07:27:52;;;;;;;8.45;5.32;;;9.70;48.10;;;;;;4987878;28;20046;-53
2021/04/28 07:30:19;;;;;;;8.02;4.80;;;9.80;48.40;;;;;;5004251;28;20051;-54
2021/04/28 07:32:44;;;;;;;6.97;4.28;;;9.90;48.60;;;;;;4994934;28;20044;-54
2021/04/28 07:35:12;;;;;;;10.88;4.47;;;10.00;48.50;;;;;;5032238;28;20414;-50
2021/04/28 07:37:37;;;;;;;8.50;4.75;;;10.20;47.60;;;;;;4987751;28;20452;-54
2021/04/28 07:40:05;;;;;;;7.78;4.70;;;10.30;49.10;;;;;;4974560;28;20072;-51
2021/04/28 07:42:32;;;;;;;6.25;4.40;;;10.40;47.60;;;;;;4988485;28;20482;-54
2021/04/28 07:44:57;;;;;;;7.55;4.60;;;10.50;48.30;;;;;;4986541;28;20410;-52
2021/04/28 07:47:23;;;;;;;7.53;4.50;;;10.70;47.50;;;;;;4977260;28;20050;-53
2021/04/28 07:49:49;;;;;;;8.05;4.85;;;10.80;47.60;;;;;;4977131;28;20065;-52
2021/04/28 07:52:15;;;;;;;9.07;4.57;;;10.90;45.50;;;;;;4987741;28;20042;-51
2021/04/28 07:54:41;;;;;;;8.65;4.38;;;10.90;45.90;;;;;;4989884;28;20042;-52
2021/04/28 07:57:07;;;;;;;8.55;4.47;;;11.00;46.40;;;;;;4993012;28;20598;-53
2021/04/28 07:59:33;;;;;;;6.78;4.40;;;11.10;46.90;;;;;;5046798;28;20041;-54
2021/04/28 08:01:58;;;;;;;7.28;4.80;;;11.10;46.90;;;;;;4991411;28;20046;-53
2021/04/28 08:04:24;;;;;;;7.28;4.90;;;11.30;45.80;;;;;;4990728;28;20157;-53
2021/04/28 08:06:50;;;;;;;8.95;4.25;;;11.40;45.80;;;;;;4991041;28;20046;-54
2021/04/28 08:09:15;;;;;;;11.13;4.55;;;11.50;44.70;;;;;;4989899;28;20076;-53
2021/04/28 08:11:41;;;;;;;9.93;5.05;;;11.40;45.70;;;;;;4990734;28;20119;-54
2021/04/28 08:14:07;;;;;;;10.05;4.70;;;11.60;45.90;;;;;;4987764;28;20092;-54
2021/04/28 08:16:34;;;;;;;10.38;4.80;;;11.70;46.20;;;;;;4990455;28;20039;-51
2021/04/28 08:19:00;;;;;;;7.78;5.13;;;11.90;44.00;;;;;;4990818;28;20095;-53
2021/04/28 08:21:26;;;;;;;14.57;4.88;;;11.90;43.50;;;;;;4991084;28;20038;-54
2021/04/28 08:23:52;;;;;;;12.38;5.13;;;12.10;45.80;;;;;;4984375;28;20057;-54
2021/04/28 08:26:18;;;;;;;10.88;4.85;;;12.20;45.10;;;;;;4984988;28;20081;-52
2021/04/28 08:28:46;;;;;;;7.30;4.80;;;12.30;43.30;;;;;;4981739;28;20133;-51
2021/04/28 08:31:19;;;;;;;11.02;4.90;;;12.40;44.40;;;;;;4987474;28;20046;-51
2021/04/28 08:33:45;;;;;;;10.33;4.57;;;12.40;43.40;;;;;;4990869;28;20046;-49
2021/04/28 08:36:11;;;;;;;9.60;4.97;;;12.60;42.60;;;;;;4989132;28;20070;-49
2021/04/28 08:38:38;;;;;;;7.82;5.00;;;12.70;42.70;;;;;;4988849;28;20085;-52
2021/04/28 08:41:06;;;;;;;9.98;5.15;;;12.60;43.50;;;;;;4990544;28;20431;-50
2021/04/28 08:43:32;;;;;;;8.43;4.90;;;12.60;43.90;;;;;;4990708;28;20045;-50
2021/04/28 08:46:00;;;;;;;9.35;5.20;;;12.80;43.90;;;;;;4990371;28;20127;-51
2021/04/28 08:48:25;;;;;;;13.75;5.20;;;12.80;43.20;;;;;;4995369;28;20703;-52
2021/04/28 08:50:51;;;;;;;10.07;5.40;;;12.80;42.60;;;;;;4995774;28;20050;-49
2021/04/28 08:53:18;;;;;;;9.40;5.32;;;12.90;40.80;;;;;;5025939;28;20047;-51
2021/04/28 08:55:45;;;;;;;11.43;5.35;;;12.90;41.50;;;;;;5011535;28;20559;-51
2021/04/28 08:58:13;;;;;;;11.57;5.88;;;13.00;42.20;;;;;;4983867;28;20045;-52
2021/04/28 09:00:39;;;;;;;9.25;5.15;;;13.10;42.80;;;;;;4990290;28;20088;-50
2021/04/28 09:03:05;;;;;;;7.97;5.53;;;13.20;41.10;;;;;;4990741;28;20081;-52
2021/04/28 09:05:32;;;;;;;10.43;5.28;;;13.30;41.20;;;;;;4978129;28;20043;-52
2021/04/28 09:07:59;;;;;;;16.75;5.50;;;13.30;41.90;;;;;;4985845;28;20043;-52
2021/04/28 09:10:29;;;;;;;10.25;5.47;;;13.50;40.00;;;;;;4990261;28;20565;-52
2021/04/28 09:12:59;;;;;;;8.35;5.35;;;13.60;41.60;;;;;;4989102;28;20133;-49
2021/04/28 09:15:40;;;;;;;12.23;5.93;;;13.90;39.40;;;;;;4986420;28;20553;-51
2021/04/28 09:18:09;;;;;;;8.38;5.50;;;13.90;40.20;;;;;;4979963;28;20113;-52
2021/04/28 09:23:16;;;;;;;10.57;5.60;;;14.00;40.00;;;;;;4979542;28;20378;-52
2021/04/28 09:25:44;;;;;;;9.18;5.70;;;14.00;39.50;;;;;;4988422;28;20046;-53
2021/04/28 09:28:33;;;;;;;10.18;5.25;;;14.00;38.90;;;;;;4977821;28;20080;-53
2021/04/28 09:31:08;;;;;;;17.40;6.20;;;14.10;39.50;;;;;;4984474;28;20046;-54
2021/04/28 09:33:51;;;;;;;11.85;5.55;;;14.20;39.90;;;;;;4977505;28;20034;-51
2021/04/28 09:36:25;;;;;;;13.55;5.80;;;14.40;38.40;;;;;;4978237;28;20046;-51
2021/04/28 09:38:55;;;;;;;13.32;6.05;;;14.50;37.60;;;;;;4989142;28;20402;-51
2021/04/28 09:41:40;;;;;;;10.45;5.70;;;14.50;37.50;;;;;;4976091;28;20049;-49
2021/04/28 09:44:23;;;;;;;14.65;6.50;;;14.70;36.60;;;;;;4989409;28;20045;-52
2021/04/28 09:47:10;;;;;;;12.27;6.13;;;14.70;38.30;;;;;;4989600;28;20043;-51
2021/04/28 09:49:44;;;;;;;14.63;6.22;;;14.90;38.00;;;;;;4988506;28;20510;-53
2021/04/28 09:52:10;;;;;;;9.63;6.05;;;15.00;36.00;;;;;;4989746;28;20443;-50
2021/04/28 09:54:36;;;;;;;10.30;6.20;;;15.00;36.10;;;;;;4995610;28;20137;-50
2021/04/28 09:57:03;;;;;;;9.98;7.00;;;15.10;36.90;;;;;;5040160;28;20417;-53
2021/04/28 09:59:40;;;;;;;13.55;7.28;;;15.10;36.10;;;;;;4988660;28;20490;-53
2021/04/28 10:02:07;;;;;;;10.75;6.60;;;15.20;35.40;;;;;;4970297;28;20065;-53
2021/04/28 10:04:33;;;;;;;11.25;7.40;;;15.30;33.80;;;;;;4983883;28;20145;-53
2021/04/28 10:06:59;;;;;;;8.65;5.97;;;15.20;34.10;;;;;;4984646;28;20126;-54
2021/04/28 10:09:33;;;;;;;11.52;6.55;;;15.20;35.50;;;;;;4978972;28;20046;-51
2021/04/28 10:12:00;;;;;;;12.50;6.57;;;15.20;35.40;;;;;;4973025;28;20042;-52
2021/04/28 10:14:28;;;;;;;15.55;6.55;;;15.30;34.50;;;;;;4989579;28;20042;-53
2021/04/28 10:16:57;;;;;;;13.57;6.82;;;15.40;34.80;;;;;;4987720;28;20129;-55
2021/04/28 10:19:27;;;;;;;13.68;7.60;;;15.40;34.60;;;;;;4989343;28;20042;-53
2021/04/28 10:22:01;;;;;;;10.48;6.55;;;15.40;35.60;;;;;;5020923;28;20060;-51
2021/04/28 10:24:28;;;;;;;8.73;6.10;;;15.60;35.20;;;;;;4999731;28;20122;-52
2021/04/28 10:26:54;;;;;;;10.77;6.30;;;15.70;35.10;;;;;;4988681;28;20495;-51
2021/04/28 10:29:21;;;;;;;8.98;6.57;;;15.80;33.40;;;;;;4989070;28;20084;-54
2021/04/28 10:31:49;;;;;;;10.77;7.30;;;15.60;34.70;;;;;;4974171;28;20534;-49
2021/04/28 10:34:33;;;;;;;11.95;6.40;;;15.70;34.80;;;;;;4976709;28;20513;-50
2021/04/28 10:37:00;;;;;;;12.90;7.43;;;15.70;35.70;;;;;;4975569;28;20042;-50
2021/04/28 10:39:27;;;;;;;11.85;7.00;;;15.80;34.20;;;;;;4988953;28;20122;-50
2021/04/28 10:41:54;;;;;;;13.23;7.32;;;15.70;33.90;;;;;;4987248;28;20049;-53
2021/04/28 10:44:41;;;;;;;10.93;6.97;;;15.70;34.50;;;;;;4989209;28;20468;-53
2021/04/28 10:47:28;;;;;;;9.85;6.90;;;15.90;33.90;;;;;;4974872;28;20054;-52
2021/04/28 10:50:28;;;;;;;13.60;7.53;;;15.90;33.40;;;;;;4991013;28;20046;-52
2021/04/28 10:53:00;;;;;;;11.38;7.10;;;15.90;34.00;;;;;;4977208;28;20107;-51
2021/04/28 10:55:51;;;;;;;10.87;7.20;;;15.90;32.90;;;;;;4979710;28;20039;-54
2021/04/28 10:58:24;;;;;;;14.15;7.63;;;16.00;32.10;;;;;;4983159;28;20735;-53
2021/04/28 11:01:10;;;;;;;11.50;7.72;;;15.90;33.40;;;;;;4975902;28;20045;-54
2021/04/28 11:03:42;;;;;;;10.90;7.90;;;15.90;34.40;;;;;;4976997;28;20054;-54
2021/04/28 11:06:29;;;;;;;12.40;6.70;;;15.90;33.70;;;;;;4988520;28;20498;-54
2021/04/28 11:08:55;;;;;;;12.60;7.72;;;16.00;33.80;;;;;;4988872;28;20144;-54
2021/04/28 11:11:30;;;;;;;14.65;7.78;;;16.00;33.00;;;;;;4988546;28;20410;-54
2021/04/28 11:14:11;;;;;;;10.55;7.60;;;16.00;34.40;;;;;;4986514;28;20460;-54
2021/04/28 11:16:45;;;;;;;10.82;7.40;;;16.10;34.80;;;;;;4988605;28;20062;-55
2021/04/28 11:19:21;;;;;;;11.60;7.75;;;16.20;33.70;;;;;;4986230;28;20045;-55
2021/04/28 11:22:16;;;;;;;12.93;7.65;;;16.30;34.00;;;;;;4979625;28;20042;-55
2021/04/28 11:25:07;;;;;;;14.35;7.57;;;16.50;33.30;;;;;;4976649;28;20051;-55
2021/04/28 11:27:46;;;;;;;12.32;7.40;;;16.50;33.40;;;;;;4987071;28;20414;-54
2021/04/28 11:30:20;;;;;;;12.70;7.65;;;16.40;32.90;;;;;;5027589;28;20086;-55
2021/04/28 11:33:08;;;;;;;12.07;8.00;;;16.50;34.30;;;;;;4987944;28;20050;-55
2021/04/28 11:35:35;;;;;;;14.55;7.97;;;16.60;34.20;;;;;;4991333;28;20304;-55
2021/04/28 11:38:11;;;;;;;17.95;9.00;;;16.70;32.90;;;;;;5049518;28;20099;-52
2021/04/28 11:40:50;;;;;;;13.73;7.60;;;16.70;32.60;;;;;;4991528;28;20043;-51
2021/04/28 11:43:24;;;;;;;13.10;8.10;;;16.80;32.10;;;;;;4974104;28;20038;-54
2021/04/28 11:45:59;;;;;;;13.27;7.72;;;16.70;33.30;;;;;;4985498;28;20088;-53
2021/04/28 11:48:25;;;;;;;11.88;8.73;;;16.50;33.20;;;;;;5006323;28;20051;-55
2021/04/28 11:50:57;;;;;;;13.07;8.13;;;16.50;33.40;;;;;;5021362;28;20043;-55
2021/04/28 11:53:24;;;;;;;13.47;8.80;;;16.50;33.00;;;;;;4988149;28;20482;-56
2021/04/28 11:55:50;;;;;;;15.50;8.57;;;16.60;33.40;;;;;;4991317;28;20876;-56
2021/04/28 11:58:22;;;;;;;14.50;8.57;;;16.60;32.40;;;;;;4990911;28;20061;-54
2021/04/28 12:00:48;;;;;;;;;;;16.70;33.20;;;;;;4991579;28;20045;-54
2021/04/28 12:03:14;;;;;;;14.38;8.90;;;16.80;34.20;;;;;;4991214;28;20370;-55
2021/04/28 12:05:39;;;;;;;12.80;8.85;;;16.90;31.50;;;;;;4991022;28;20066;-54
2021/04/28 12:08:07;;;;;;;14.85;8.60;;;16.90;31.90;;;;;;4980005;28;20395;-55
2021/04/28 12:10:32;;;;;;;11.30;8.50;;;16.80;32.80;;;;;;4981992;28;20148;-55
2021/04/28 12:12:58;;;;;;;11.68;8.35;;;16.80;32.90;;;;;;4985036;28;20126;-55
2021/04/28 12:15:24;;;;;;;15.48;8.75;;;16.90;31.50;;;;;;5002472;28;20483;-54
2021/04/28 12:17:53;;;;;;;14.10;8.98;;;16.90;32.20;;;;;;4990738;28;20612;-53
2021/04/28 12:20:23;;;;;;;12.73;9.15;;;17.00;32.60;;;;;;5020747;28;20068;-55
2021/04/28 12:22:50;;;;;;;17.10;9.05;;;17.20;33.20;;;;;;5019618;28;20144;-55
2021/04/28 12:25:20;;;;;;;12.75;8.93;;;17.50;32.00;;;;;;4986378;28;20047;-55
2021/04/28 12:27:48;;;;;;;14.38;8.77;;;17.50;31.90;;;;;;5040693;28;20044;-55
2021/04/28 12:30:15;;;;;;;13.75;8.82;;;17.60;30.60;;;;;;4993546;28;20041;-55
2021/04/28 12:32:47;;;;;;;14.48;9.38;;;17.60;30.90;;;;;;4983286;28;20105;-53
2021/04/28 12:35:20;;;;;;;12.75;9.30;;;17.60;31.10;;;;;;4992473;28;20466;-56
2021/04/28 12:38:11;;;;;;;12.82;9.55;;;17.60;31.40;;;;;;4993746;28;20105;-55
2021/04/28 12:40:48;;;;;;;12.70;8.40;;;17.50;30.90;;;;;;4994672;28;20035;-55
2021/04/28 12:43:16;;;;;;;13.88;9.00;;;17.50;31.80;;;;;;4990377;28;20414;-56
2021/04/28 12:45:42;;;;;;;12.40;8.88;;;17.40;30.90;;;;;;4978865;28;20109;-55
2021/04/28 12:48:11;;;;;;;15.95;9.23;;;17.30;31.00;;;;;;4992012;28;20138;-51
2021/04/28 12:50:38;;;;;;;17.15;9.13;;;17.20;32.00;;;;;;4982025;28;20070;-50
2021/04/28 12:53:09;;;;;;;12.90;9.15;;;17.30;32.00;;;;;;4977607;28;20034;-52
2021/04/28 12:55:40;;;;;;;16.58;9.90;;;17.20;31.50;;;;;;4985101;28;20042;-54